sensor_id;sensor_type;location;lat;lon;timestamp;P1;durP1;ratioP1;P2;durP2;ratioP2
65706;SDS011;52423;43.512;5.220;2023-04-15T00:00:14;5.82;;;2.08;;
65706;SDS011;52423;43.512;5.220;2023-04-15T00:02:40;4.53;;;1.60;;
65706;SDS011;52423;43.512;5.220;2023-04-15T00:05:06;6.47;;;1.70;;
65706;SDS011;52423;43.512;5.220;2023-04-15T00:07:32;3.47;;;1.58;;
65706;SDS011;52423;43.512;5.220;2023-04-15T00:09:57;5.50;;;1.90;;
65706;SDS011;52423;43.512;5.220;2023-04-15T00:12:24;3.20;;;1.48;;
65706;SDS011;52423;43.512;5.220;2023-04-15T00:14:52;2.60;;;1.45;;
65706;SDS011;52423;43.512;5.220;2023-04-15T00:17:18;5.40;;;1.65;;
65706;SDS011;52423;43.512;5.220;2023-04-15T00:19:44;3.63;;;1.58;;
65706;SDS011;52423;43.512;5.220;2023-04-15T00:22:10;3.33;;;1.27;;
65706;SDS011;52423;43.512;5.220;2023-04-15T00:24:36;4.10;;;1.77;;
65706;SDS011;52423;43.512;5.220;2023-04-15T00:27:01;3.85;;;1.63;;
65706;SDS011;52423;43.512;5.220;2023-04-15T00:29:27;5.28;;;1.83;;
65706;SDS011;52423;43.512;5.220;2023-04-15T00:31:53;3.75;;;1.73;;
65706;SDS011;52423;43.512;5.220;2023-04-15T00:34:19;3.95;;;1.92;;
65706;SDS011;52423;43.512;5.220;2023-04-15T00:36:44;3.67;;;1.40;;
65706;SDS011;52423;43.512;5.220;2023-04-15T00:39:10;4.13;;;1.70;;
65706;SDS011;52423;43.512;5.220;2023-04-15T00:41:35;3.90;;;2.03;;
65706;SDS011;52423;43.512;5.220;2023-04-15T00:44:03;5.65;;;1.75;;
65706;SDS011;52423;43.512;5.220;2023-04-15T00:46:30;2.75;;;1.27;;
65706;SDS011;52423;43.512;5.220;2023-04-15T00:48:57;4.65;;;1.52;;
65706;SDS011;52423;43.512;5.220;2023-04-15T00:51:22;2.75;;;1.27;;
65706;SDS011;52423;43.512;5.220;2023-04-15T00:53:48;3.83;;;1.42;;
65706;SDS011;52423;43.512;5.220;2023-04-15T00:56:14;4.82;;;1.50;;
65706;SDS011;52423;43.512;5.220;2023-04-15T00:58:40;2.90;;;1.20;;
65706;SDS011;52423;43.512;5.220;2023-04-15T01:01:05;1.85;;;1.05;;
65706;SDS011;52423;43.512;5.220;2023-04-15T01:03:31;2.33;;;1.35;;
65706;SDS011;52423;43.512;5.220;2023-04-15T01:05:56;2.42;;;1.60;;
65706;SDS011;52423;43.512;5.220;2023-04-15T01:08:28;2.38;;;1.60;;
65706;SDS011;52423;43.512;5.220;2023-04-15T01:13:25;4.15;;;1.70;;
65706;SDS011;52423;43.512;5.220;2023-04-15T01:15:51;3.72;;;1.60;;
65706;SDS011;52423;43.512;5.220;2023-04-15T01:18:17;2.10;;;1.58;;
65706;SDS011;52423;43.512;5.220;2023-04-15T01:20:43;2.22;;;1.80;;
65706;SDS011;52423;43.512;5.220;2023-04-15T01:23:08;4.47;;;1.70;;
65706;SDS011;52423;43.512;5.220;2023-04-15T01:25:34;3.13;;;1.55;;
65706;SDS011;52423;43.512;5.220;2023-04-15T01:27:59;3.92;;;1.50;;
65706;SDS011;52423;43.512;5.220;2023-04-15T01:30:25;1.63;;;1.52;;
65706;SDS011;52423;43.512;5.220;2023-04-15T01:32:51;1.88;;;1.45;;
65706;SDS011;52423;43.512;5.220;2023-04-15T01:35:17;4.47;;;1.60;;
65706;SDS011;52423;43.512;5.220;2023-04-15T01:37:42;2.80;;;1.55;;
65706;SDS011;52423;43.512;5.220;2023-04-15T01:40:08;2.05;;;1.50;;
65706;SDS011;52423;43.512;5.220;2023-04-15T01:42:34;3.65;;;1.48;;
65706;SDS011;52423;43.512;5.220;2023-04-15T01:45:00;4.63;;;1.90;;
65706;SDS011;52423;43.512;5.220;2023-04-15T01:47:26;3.00;;;1.77;;
65706;SDS011;52423;43.512;5.220;2023-04-15T01:49:52;1.80;;;1.50;;
65706;SDS011;52423;43.512;5.220;2023-04-15T01:52:17;4.57;;;1.65;;
65706;SDS011;52423;43.512;5.220;2023-04-15T01:54:43;2.08;;;1.65;;
65706;SDS011;52423;43.512;5.220;2023-04-15T01:57:08;2.30;;;1.60;;
65706;SDS011;52423;43.512;5.220;2023-04-15T01:59:34;3.47;;;1.70;;
65706;SDS011;52423;43.512;5.220;2023-04-15T02:02:00;1.75;;;1.42;;
65706;SDS011;52423;43.512;5.220;2023-04-15T02:04:25;1.80;;;1.65;;
65706;SDS011;52423;43.512;5.220;2023-04-15T02:06:51;3.83;;;1.92;;
65706;SDS011;52423;43.512;5.220;2023-04-15T02:09:17;2.28;;;1.70;;
65706;SDS011;52423;43.512;5.220;2023-04-15T02:11:42;4.25;;;1.88;;
65706;SDS011;52423;43.512;5.220;2023-04-15T02:14:08;3.22;;;1.90;;
65706;SDS011;52423;43.512;5.220;2023-04-15T02:16:33;2.35;;;2.10;;
65706;SDS011;52423;43.512;5.220;2023-04-15T02:18:59;3.58;;;1.80;;
65706;SDS011;52423;43.512;5.220;2023-04-15T02:21:27;3.53;;;2.30;;
65706;SDS011;52423;43.512;5.220;2023-04-15T02:23:53;2.03;;;1.92;;
65706;SDS011;52423;43.512;5.220;2023-04-15T02:26:18;3.95;;;2.65;;
65706;SDS011;52423;43.512;5.220;2023-04-15T02:28:45;4.75;;;2.65;;
65706;SDS011;52423;43.512;5.220;2023-04-15T02:31:11;4.32;;;3.33;;
65706;SDS011;52423;43.512;5.220;2023-04-15T02:33:36;3.35;;;2.88;;
65706;SDS011;52423;43.512;5.220;2023-04-15T02:36:02;3.35;;;3.05;;
65706;SDS011;52423;43.512;5.220;2023-04-15T02:38:28;4.28;;;2.72;;
65706;SDS011;52423;43.512;5.220;2023-04-15T02:40:53;3.00;;;2.42;;
65706;SDS011;52423;43.512;5.220;2023-04-15T02:43:18;8.82;;;2.63;;
65706;SDS011;52423;43.512;5.220;2023-04-15T02:45:44;3.63;;;2.30;;
65706;SDS011;52423;43.512;5.220;2023-04-15T02:48:11;3.83;;;2.55;;
65706;SDS011;52423;43.512;5.220;2023-04-15T02:50:36;5.18;;;2.33;;
65706;SDS011;52423;43.512;5.220;2023-04-15T02:53:03;3.03;;;2.78;;
65706;SDS011;52423;43.512;5.220;2023-04-15T02:55:29;8.20;;;2.50;;
65706;SDS011;52423;43.512;5.220;2023-04-15T02:57:55;4.05;;;2.58;;
65706;SDS011;52423;43.512;5.220;2023-04-15T03:00:22;4.82;;;2.40;;
65706;SDS011;52423;43.512;5.220;2023-04-15T03:02:49;2.60;;;2.40;;
65706;SDS011;52423;43.512;5.220;2023-04-15T03:05:16;3.40;;;2.38;;
65706;SDS011;52423;43.512;5.220;2023-04-15T03:07:41;7.35;;;3.10;;
65706;SDS011;52423;43.512;5.220;2023-04-15T03:10:07;3.95;;;2.60;;
65706;SDS011;52423;43.512;5.220;2023-04-15T03:12:32;5.45;;;2.90;;
65706;SDS011;52423;43.512;5.220;2023-04-15T03:14:58;3.63;;;2.70;;
65706;SDS011;52423;43.512;5.220;2023-04-15T03:17:24;4.38;;;3.03;;
65706;SDS011;52423;43.512;5.220;2023-04-15T03:19:49;3.10;;;2.88;;
65706;SDS011;52423;43.512;5.220;2023-04-15T03:22:15;6.82;;;3.05;;
65706;SDS011;52423;43.512;5.220;2023-04-15T03:24:40;3.60;;;2.70;;
65706;SDS011;52423;43.512;5.220;2023-04-15T03:27:06;3.65;;;2.92;;
65706;SDS011;52423;43.512;5.220;2023-04-15T03:29:32;3.15;;;2.85;;
65706;SDS011;52423;43.512;5.220;2023-04-15T03:31:57;3.58;;;2.85;;
65706;SDS011;52423;43.512;5.220;2023-04-15T03:34:23;3.20;;;2.90;;
65706;SDS011;52423;43.512;5.220;2023-04-15T03:36:48;4.07;;;2.65;;
65706;SDS011;52423;43.512;5.220;2023-04-15T03:39:13;2.88;;;2.63;;
65706;SDS011;52423;43.512;5.220;2023-04-15T03:41:39;2.83;;;2.35;;
65706;SDS011;52423;43.512;5.220;2023-04-15T03:44:04;3.70;;;2.83;;
65706;SDS011;52423;43.512;5.220;2023-04-15T03:46:30;2.75;;;2.55;;
65706;SDS011;52423;43.512;5.220;2023-04-15T03:48:55;4.68;;;2.78;;
65706;SDS011;52423;43.512;5.220;2023-04-15T03:51:21;3.03;;;2.70;;
65706;SDS011;52423;43.512;5.220;2023-04-15T03:53:46;3.88;;;2.53;;
65706;SDS011;52423;43.512;5.220;2023-04-15T03:56:11;2.92;;;2.63;;
65706;SDS011;52423;43.512;5.220;2023-04-15T03:58:37;3.15;;;2.20;;
65706;SDS011;52423;43.512;5.220;2023-04-15T04:01:02;2.30;;;2.10;;
65706;SDS011;52423;43.512;5.220;2023-04-15T04:03:28;2.50;;;2.30;;
65706;SDS011;52423;43.512;5.220;2023-04-15T04:05:53;2.50;;;2.30;;
65706;SDS011;52423;43.512;5.220;2023-04-15T04:08:18;2.13;;;1.58;;
65706;SDS011;52423;43.512;5.220;2023-04-15T04:10:45;2.95;;;1.73;;
65706;SDS011;52423;43.512;5.220;2023-04-15T04:13:11;2.08;;;1.50;;
65706;SDS011;52423;43.512;5.220;2023-04-15T04:15:36;3.75;;;2.00;;
65706;SDS011;52423;43.512;5.220;2023-04-15T04:18:01;3.55;;;1.90;;
65706;SDS011;52423;43.512;5.220;2023-04-15T04:20:27;2.67;;;2.47;;
65706;SDS011;52423;43.512;5.220;2023-04-15T04:22:53;3.85;;;2.75;;
65706;SDS011;52423;43.512;5.220;2023-04-15T04:25:18;3.92;;;2.90;;
65706;SDS011;52423;43.512;5.220;2023-04-15T04:27:43;3.22;;;2.60;;
65706;SDS011;52423;43.512;5.220;2023-04-15T04:30:09;3.05;;;2.85;;
65706;SDS011;52423;43.512;5.220;2023-04-15T04:32:35;3.40;;;2.53;;
65706;SDS011;52423;43.512;5.220;2023-04-15T04:35:01;3.40;;;2.45;;
65706;SDS011;52423;43.512;5.220;2023-04-15T04:37:26;3.67;;;2.63;;
65706;SDS011;52423;43.512;5.220;2023-04-15T04:39:52;5.43;;;2.47;;
65706;SDS011;52423;43.512;5.220;2023-04-15T04:42:17;4.03;;;2.30;;
65706;SDS011;52423;43.512;5.220;2023-04-15T04:44:43;2.75;;;2.15;;
65706;SDS011;52423;43.512;5.220;2023-04-15T04:47:08;3.03;;;2.08;;
65706;SDS011;52423;43.512;5.220;2023-04-15T04:49:33;4.35;;;1.63;;
65706;SDS011;52423;43.512;5.220;2023-04-15T04:51:59;5.95;;;1.90;;
65706;SDS011;52423;43.512;5.220;2023-04-15T04:54:25;2.53;;;1.65;;
65706;SDS011;52423;43.512;5.220;2023-04-15T04:56:51;2.50;;;1.60;;
65706;SDS011;52423;43.512;5.220;2023-04-15T04:59:17;2.80;;;1.45;;
65706;SDS011;52423;43.512;5.220;2023-04-15T05:01:42;1.00;;;1.00;;
65706;SDS011;52423;43.512;5.220;2023-04-15T05:04:08;1.85;;;1.10;;
65706;SDS011;52423;43.512;5.220;2023-04-15T05:06:33;3.05;;;2.05;;
65706;SDS011;52423;43.512;5.220;2023-04-15T05:09:00;1.33;;;0.98;;
65706;SDS011;52423;43.512;5.220;2023-04-15T05:11:26;2.22;;;1.27;;
65706;SDS011;52423;43.512;5.220;2023-04-15T05:13:52;1.25;;;1.10;;
65706;SDS011;52423;43.512;5.220;2023-04-15T05:16:17;0.80;;;0.80;;
65706;SDS011;52423;43.512;5.220;2023-04-15T05:18:43;1.65;;;0.90;;
65706;SDS011;52423;43.512;5.220;2023-04-15T05:21:09;2.35;;;1.13;;
65706;SDS011;52423;43.512;5.220;2023-04-15T05:23:34;2.03;;;1.35;;
65706;SDS011;52423;43.512;5.220;2023-04-15T05:26:00;10.25;;;1.15;;
65706;SDS011;52423;43.512;5.220;2023-04-15T05:28:25;7.22;;;1.13;;
65706;SDS011;52423;43.512;5.220;2023-04-15T05:30:51;2.13;;;1.48;;
65706;SDS011;52423;43.512;5.220;2023-04-15T05:33:17;3.53;;;1.48;;
65706;SDS011;52423;43.512;5.220;2023-04-15T05:35:43;3.47;;;1.30;;
65706;SDS011;52423;43.512;5.220;2023-04-15T05:38:08;1.63;;;0.95;;
65706;SDS011;52423;43.512;5.220;2023-04-15T05:40:33;2.53;;;1.17;;
65706;SDS011;52423;43.512;5.220;2023-04-15T05:42:59;4.25;;;1.30;;
65706;SDS011;52423;43.512;5.220;2023-04-15T05:45:24;3.65;;;1.42;;
65706;SDS011;52423;43.512;5.220;2023-04-15T05:47:50;0.98;;;0.88;;
65706;SDS011;52423;43.512;5.220;2023-04-15T05:50:17;2.20;;;1.20;;
65706;SDS011;52423;43.512;5.220;2023-04-15T05:52:43;3.05;;;1.08;;
65706;SDS011;52423;43.512;5.220;2023-04-15T05:55:10;2.25;;;1.05;;
65706;SDS011;52423;43.512;5.220;2023-04-15T05:57:35;1.02;;;1.02;;
65706;SDS011;52423;43.512;5.220;2023-04-15T06:00:01;1.65;;;1.00;;
65706;SDS011;52423;43.512;5.220;2023-04-15T06:02:29;2.10;;;1.00;;
65706;SDS011;52423;43.512;5.220;2023-04-15T06:04:55;1.27;;;0.80;;
65706;SDS011;52423;43.512;5.220;2023-04-15T06:07:21;2.38;;;0.80;;
65706;SDS011;52423;43.512;5.220;2023-04-15T06:09:47;2.25;;;1.25;;
65706;SDS011;52423;43.512;5.220;2023-04-15T06:12:12;1.15;;;0.82;;
65706;SDS011;52423;43.512;5.220;2023-04-15T06:14:38;1.02;;;0.70;;
65706;SDS011;52423;43.512;5.220;2023-04-15T06:17:04;2.05;;;1.08;;
65706;SDS011;52423;43.512;5.220;2023-04-15T06:19:30;2.00;;;1.00;;
65706;SDS011;52423;43.512;5.220;2023-04-15T06:21:55;1.45;;;0.80;;
65706;SDS011;52423;43.512;5.220;2023-04-15T06:24:22;0.95;;;0.70;;
65706;SDS011;52423;43.512;5.220;2023-04-15T06:26:47;1.98;;;0.85;;
65706;SDS011;52423;43.512;5.220;2023-04-15T06:29:13;0.70;;;0.70;;
65706;SDS011;52423;43.512;5.220;2023-04-15T06:31:38;1.35;;;0.90;;
65706;SDS011;52423;43.512;5.220;2023-04-15T06:34:04;2.67;;;1.02;;
65706;SDS011;52423;43.512;5.220;2023-04-15T06:36:29;0.80;;;0.80;;
65706;SDS011;52423;43.512;5.220;2023-04-15T06:38:55;1.05;;;0.63;;
65706;SDS011;52423;43.512;5.220;2023-04-15T06:41:21;3.30;;;1.15;;
65706;SDS011;52423;43.512;5.220;2023-04-15T06:43:46;1.42;;;0.90;;
65706;SDS011;52423;43.512;5.220;2023-04-15T06:46:12;1.13;;;0.82;;
65706;SDS011;52423;43.512;5.220;2023-04-15T06:48:37;1.02;;;0.90;;
65706;SDS011;52423;43.512;5.220;2023-04-15T06:51:03;1.60;;;0.88;;
65706;SDS011;52423;43.512;5.220;2023-04-15T06:53:28;1.17;;;0.70;;
65706;SDS011;52423;43.512;5.220;2023-04-15T06:55:54;0.80;;;0.80;;
65706;SDS011;52423;43.512;5.220;2023-04-15T06:58:19;4.43;;;1.08;;
65706;SDS011;52423;43.512;5.220;2023-04-15T07:00:45;0.65;;;0.60;;
65706;SDS011;52423;43.512;5.220;2023-04-15T07:03:11;3.15;;;0.90;;
65706;SDS011;52423;43.512;5.220;2023-04-15T07:05:37;0.95;;;0.70;;
65706;SDS011;52423;43.512;5.220;2023-04-15T07:08:03;2.25;;;1.00;;
65706;SDS011;52423;43.512;5.220;2023-04-15T07:10:29;1.80;;;0.80;;
65706;SDS011;52423;43.512;5.220;2023-04-15T07:12:54;1.17;;;0.70;;
65706;SDS011;52423;43.512;5.220;2023-04-15T07:15:20;2.85;;;0.80;;
65706;SDS011;52423;43.512;5.220;2023-04-15T07:17:46;1.13;;;0.70;;
65706;SDS011;52423;43.512;5.220;2023-04-15T07:20:11;1.60;;;0.70;;
65706;SDS011;52423;43.512;5.220;2023-04-15T07:22:37;0.70;;;0.60;;
65706;SDS011;52423;43.512;5.220;2023-04-15T07:25:03;0.80;;;0.80;;
65706;SDS011;52423;43.512;5.220;2023-04-15T07:27:29;1.35;;;0.65;;
65706;SDS011;52423;43.512;5.220;2023-04-15T07:29:55;0.47;;;0.40;;
65706;SDS011;52423;43.512;5.220;2023-04-15T07:32:20;0.50;;;0.45;;
65706;SDS011;52423;43.512;5.220;2023-04-15T07:34:45;0.93;;;0.50;;
65706;SDS011;52423;43.512;5.220;2023-04-15T07:37:11;1.60;;;0.50;;
65706;SDS011;52423;43.512;5.220;2023-04-15T07:39:36;1.35;;;0.60;;
65706;SDS011;52423;43.512;5.220;2023-04-15T07:42:02;1.38;;;0.68;;
65706;SDS011;52423;43.512;5.220;2023-04-15T07:44:28;0.47;;;0.40;;
65706;SDS011;52423;43.512;5.220;2023-04-15T07:46:54;2.75;;;0.28;;
65706;SDS011;52423;43.512;5.220;2023-04-15T07:49:20;0.85;;;0.52;;
65706;SDS011;52423;43.512;5.220;2023-04-15T07:51:46;0.68;;;0.32;;
65706;SDS011;52423;43.512;5.220;2023-04-15T07:54:11;2.55;;;0.30;;
65706;SDS011;52423;43.512;5.220;2023-04-15T07:56:37;1.30;;;0.40;;
65706;SDS011;52423;43.512;5.220;2023-04-15T07:59:02;0.60;;;0.30;;
65706;SDS011;52423;43.512;5.220;2023-04-15T08:01:30;0.43;;;0.20;;
65706;SDS011;52423;43.512;5.220;2023-04-15T08:03:55;3.55;;;0.40;;
65706;SDS011;52423;43.512;5.220;2023-04-15T08:06:21;0.35;;;0.32;;
65706;SDS011;52423;43.512;5.220;2023-04-15T08:08:47;1.85;;;0.57;;
65706;SDS011;52423;43.512;5.220;2023-04-15T08:11:12;0.52;;;0.30;;
65706;SDS011;52423;43.512;5.220;2023-04-15T08:13:38;0.52;;;0.40;;
65706;SDS011;52423;43.512;5.220;2023-04-15T08:18:48;1.10;;;0.30;;
65706;SDS011;52423;43.512;5.220;2023-04-15T08:21:15;1.20;;;0.38;;
65706;SDS011;52423;43.512;5.220;2023-04-15T08:23:40;0.50;;;0.38;;
65706;SDS011;52423;43.512;5.220;2023-04-15T08:26:06;0.52;;;0.20;;
65706;SDS011;52423;43.512;5.220;2023-04-15T08:28:32;3.30;;;0.43;;
65706;SDS011;52423;43.512;5.220;2023-04-15T08:30:58;3.45;;;0.60;;
65706;SDS011;52423;43.512;5.220;2023-04-15T08:33:24;1.58;;;0.63;;
65706;SDS011;52423;43.512;5.220;2023-04-15T08:35:49;3.85;;;0.77;;
65706;SDS011;52423;43.512;5.220;2023-04-15T08:38:15;1.13;;;0.60;;
65706;SDS011;52423;43.512;5.220;2023-04-15T08:40:41;0.40;;;0.40;;
65706;SDS011;52423;43.512;5.220;2023-04-15T08:43:09;0.95;;;0.70;;
65706;SDS011;52423;43.512;5.220;2023-04-15T08:45:40;1.45;;;0.60;;
65706;SDS011;52423;43.512;5.220;2023-04-15T08:48:05;0.65;;;0.40;;
65706;SDS011;52423;43.512;5.220;2023-04-15T08:50:32;4.07;;;0.50;;
65706;SDS011;52423;43.512;5.220;2023-04-15T08:52:58;0.88;;;0.43;;
65706;SDS011;52423;43.512;5.220;2023-04-15T08:55:28;0.77;;;0.60;;
65706;SDS011;52423;43.512;5.220;2023-04-15T08:57:57;3.72;;;0.43;;
65706;SDS011;52423;43.512;5.220;2023-04-15T09:00:23;2.70;;;0.82;;
65706;SDS011;52423;43.512;5.220;2023-04-15T09:02:50;0.63;;;0.40;;
65706;SDS011;52423;43.512;5.220;2023-04-15T09:05:16;8.27;;;0.70;;
65706;SDS011;52423;43.512;5.220;2023-04-15T09:07:41;0.82;;;0.50;;
65706;SDS011;52423;43.512;5.220;2023-04-15T09:10:07;3.00;;;0.50;;
65706;SDS011;52423;43.512;5.220;2023-04-15T09:12:34;0.98;;;0.55;;
65706;SDS011;52423;43.512;5.220;2023-04-15T09:15:00;0.95;;;0.38;;
65706;SDS011;52423;43.512;5.220;2023-04-15T09:17:26;2.13;;;0.60;;
65706;SDS011;52423;43.512;5.220;2023-04-15T09:20:10;1.00;;;0.43;;
65706;SDS011;52423;43.512;5.220;2023-04-15T09:22:38;0.93;;;0.55;;
65706;SDS011;52423;43.512;5.220;2023-04-15T09:25:47;0.30;;;0.30;;
65706;SDS011;52423;43.512;5.220;2023-04-15T09:27:58;2.75;;;0.65;;
65706;SDS011;52423;43.512;5.220;2023-04-15T09:30:28;3.03;;;0.32;;
65706;SDS011;52423;43.512;5.220;2023-04-15T09:32:54;1.70;;;0.47;;
65706;SDS011;52423;43.512;5.220;2023-04-15T09:35:24;2.08;;;0.40;;
65706;SDS011;52423;43.512;5.220;2023-04-15T09:37:51;0.60;;;0.38;;
65706;SDS011;52423;43.512;5.220;2023-04-15T09:40:36;0.43;;;0.30;;
65706;SDS011;52423;43.512;5.220;2023-04-15T09:43:03;2.17;;;0.40;;
65706;SDS011;52423;43.512;5.220;2023-04-15T09:45:29;0.93;;;0.70;;
65706;SDS011;52423;43.512;5.220;2023-04-15T09:47:56;1.20;;;0.57;;
65706;SDS011;52423;43.512;5.220;2023-04-15T09:50:25;1.00;;;0.63;;
65706;SDS011;52423;43.512;5.220;2023-04-15T09:52:52;1.48;;;0.30;;
65706;SDS011;52423;43.512;5.220;2023-04-15T09:55:17;1.20;;;0.65;;
65706;SDS011;52423;43.512;5.220;2023-04-15T09:57:43;2.83;;;0.52;;
65706;SDS011;52423;43.512;5.220;2023-04-15T10:00:11;1.67;;;0.57;;
65706;SDS011;52423;43.512;5.220;2023-04-15T10:02:38;1.15;;;0.40;;
65706;SDS011;52423;43.512;5.220;2023-04-15T10:05:05;0.28;;;0.20;;
65706;SDS011;52423;43.512;5.220;2023-04-15T10:07:31;0.30;;;0.20;;
65706;SDS011;52423;43.512;5.220;2023-04-15T10:09:56;0.40;;;0.20;;
65706;SDS011;52423;43.512;5.220;2023-04-15T10:12:26;1.02;;;0.57;;
65706;SDS011;52423;43.512;5.220;2023-04-15T10:14:58;1.05;;;0.90;;
65706;SDS011;52423;43.512;5.220;2023-04-15T10:17:28;1.73;;;0.70;;
65706;SDS011;52423;43.512;5.220;2023-04-15T10:19:57;0.40;;;0.40;;
65706;SDS011;52423;43.512;5.220;2023-04-15T10:22:25;2.92;;;1.10;;
65706;SDS011;52423;43.512;5.220;2023-04-15T10:24:52;0.65;;;0.50;;
65706;SDS011;52423;43.512;5.220;2023-04-15T10:27:17;3.85;;;1.30;;
65706;SDS011;52423;43.512;5.220;2023-04-15T10:29:44;5.78;;;0.60;;
65706;SDS011;52423;43.512;5.220;2023-04-15T10:32:10;0.52;;;0.20;;
65706;SDS011;52423;43.512;5.220;2023-04-15T10:34:36;0.68;;;0.20;;
65706;SDS011;52423;43.512;5.220;2023-04-15T10:37:02;0.40;;;0.30;;
65706;SDS011;52423;43.512;5.220;2023-04-15T10:42:12;0.68;;;0.60;;
65706;SDS011;52423;43.512;5.220;2023-04-15T10:44:42;3.08;;;0.70;;
65706;SDS011;52423;43.512;5.220;2023-04-15T10:47:20;3.17;;;0.50;;
65706;SDS011;52423;43.512;5.220;2023-04-15T10:49:47;1.65;;;0.50;;
65706;SDS011;52423;43.512;5.220;2023-04-15T10:52:15;0.57;;;0.57;;
65706;SDS011;52423;43.512;5.220;2023-04-15T10:54:42;0.20;;;0.20;;
65706;SDS011;52423;43.512;5.220;2023-04-15T10:57:12;0.32;;;0.32;;
65706;SDS011;52423;43.512;5.220;2023-04-15T11:02:23;2.33;;;0.40;;
65706;SDS011;52423;43.512;5.220;2023-04-15T11:05:07;0.43;;;0.22;;
65706;SDS011;52423;43.512;5.220;2023-04-15T11:12:38;5.55;;;0.63;;
65706;SDS011;52423;43.512;5.220;2023-04-15T11:17:52;0.75;;;0.40;;
65706;SDS011;52423;43.512;5.220;2023-04-15T11:20:18;0.40;;;0.40;;
65706;SDS011;52423;43.512;5.220;2023-04-15T11:22:50;0.38;;;0.30;;
65706;SDS011;52423;43.512;5.220;2023-04-15T11:27:53;0.82;;;0.82;;
65706;SDS011;52423;43.512;5.220;2023-04-15T11:30:23;1.50;;;0.47;;
65706;SDS011;52423;43.512;5.220;2023-04-15T11:32:50;0.47;;;0.40;;
65706;SDS011;52423;43.512;5.220;2023-04-15T11:35:17;2.03;;;0.50;;
65706;SDS011;52423;43.512;5.220;2023-04-15T11:37:43;1.88;;;0.30;;
65706;SDS011;52423;43.512;5.220;2023-04-15T11:40:09;4.15;;;0.60;;
65706;SDS011;52423;43.512;5.220;2023-04-15T11:42:35;0.40;;;0.35;;
65706;SDS011;52423;43.512;5.220;2023-04-15T11:45:09;0.52;;;0.30;;
65706;SDS011;52423;43.512;5.220;2023-04-15T11:47:37;2.20;;;0.50;;
65706;SDS011;52423;43.512;5.220;2023-04-15T11:50:22;0.60;;;0.40;;
65706;SDS011;52423;43.512;5.220;2023-04-15T11:52:57;1.25;;;0.60;;
65706;SDS011;52423;43.512;5.220;2023-04-15T11:55:24;2.88;;;0.28;;
65706;SDS011;52423;43.512;5.220;2023-04-15T11:58:04;3.90;;;0.35;;
65706;SDS011;52423;43.512;5.220;2023-04-15T12:00:34;1.10;;;0.50;;
65706;SDS011;52423;43.512;5.220;2023-04-15T12:13:52;0.10;;;0.10;;
65706;SDS011;52423;43.512;5.220;2023-04-15T12:16:19;3.60;;;0.30;;
65706;SDS011;52423;43.512;5.220;2023-04-15T12:18:45;0.47;;;0.13;;
65706;SDS011;52423;43.512;5.220;2023-04-15T12:21:22;0.90;;;0.20;;
65706;SDS011;52423;43.512;5.220;2023-04-15T12:23:49;2.40;;;0.50;;
65706;SDS011;52423;43.512;5.220;2023-04-15T12:26:28;0.17;;;0.17;;
65706;SDS011;52423;43.512;5.220;2023-04-15T12:31:27;0.70;;;0.32;;
65706;SDS011;52423;43.512;5.220;2023-04-15T12:33:56;0.08;;;0.08;;
65706;SDS011;52423;43.512;5.220;2023-04-15T12:36:23;1.55;;;0.20;;
65706;SDS011;52423;43.512;5.220;2023-04-15T12:38:49;0.30;;;0.30;;
65706;SDS011;52423;43.512;5.220;2023-04-15T12:41:14;0.32;;;0.20;;
65706;SDS011;52423;43.512;5.220;2023-04-15T12:43:40;2.20;;;0.30;;
65706;SDS011;52423;43.512;5.220;2023-04-15T12:46:06;0.20;;;0.20;;
65706;SDS011;52423;43.512;5.220;2023-04-15T12:48:32;2.40;;;0.50;;
65706;SDS011;52423;43.512;5.220;2023-04-15T12:50:58;0.20;;;0.20;;
65706;SDS011;52423;43.512;5.220;2023-04-15T12:53:24;0.20;;;0.20;;
65706;SDS011;52423;43.512;5.220;2023-04-15T12:55:50;0.25;;;0.25;;
65706;SDS011;52423;43.512;5.220;2023-04-15T12:58:15;0.57;;;0.30;;
65706;SDS011;52423;43.512;5.220;2023-04-15T13:00:41;3.72;;;0.35;;
65706;SDS011;52423;43.512;5.220;2023-04-15T13:03:06;0.75;;;0.30;;
65706;SDS011;52423;43.512;5.220;2023-04-15T13:05:32;0.40;;;0.30;;
65706;SDS011;52423;43.512;5.220;2023-04-15T13:07:57;0.82;;;0.40;;
65706;SDS011;52423;43.512;5.220;2023-04-15T13:10:22;0.95;;;0.20;;
65706;SDS011;52423;43.512;5.220;2023-04-15T13:12:48;0.10;;;0.10;;
65706;SDS011;52423;43.512;5.220;2023-04-15T13:15:16;1.00;;;0.40;;
65706;SDS011;52423;43.512;5.220;2023-04-15T13:17:44;0.15;;;0.15;;
65706;SDS011;52423;43.512;5.220;2023-04-15T13:20:10;1.70;;;0.38;;
65706;SDS011;52423;43.512;5.220;2023-04-15T13:22:35;0.40;;;0.30;;
65706;SDS011;52423;43.512;5.220;2023-04-15T13:25:00;1.15;;;0.35;;
65706;SDS011;52423;43.512;5.220;2023-04-15T13:27:26;2.90;;;0.93;;
65706;SDS011;52423;43.512;5.220;2023-04-15T13:29:51;0.45;;;0.30;;
65706;SDS011;52423;43.512;5.220;2023-04-15T13:32:16;2.55;;;0.32;;
65706;SDS011;52423;43.512;5.220;2023-04-15T13:34:42;0.77;;;0.28;;
65706;SDS011;52423;43.512;5.220;2023-04-15T13:37:07;0.30;;;0.30;;
65706;SDS011;52423;43.512;5.220;2023-04-15T13:39:33;3.33;;;0.40;;
65706;SDS011;52423;43.512;5.220;2023-04-15T13:41:59;0.65;;;0.20;;
65706;SDS011;52423;43.512;5.220;2023-04-15T13:44:24;0.77;;;0.20;;
65706;SDS011;52423;43.512;5.220;2023-04-15T13:46:50;2.40;;;0.32;;
65706;SDS011;52423;43.512;5.220;2023-04-15T13:49:16;3.55;;;0.30;;
65706;SDS011;52423;43.512;5.220;2023-04-15T13:51:41;0.52;;;0.52;;
65706;SDS011;52423;43.512;5.220;2023-04-15T13:54:07;5.32;;;0.22;;
65706;SDS011;52423;43.512;5.220;2023-04-15T13:56:32;1.50;;;0.20;;
65706;SDS011;52423;43.512;5.220;2023-04-15T13:58:58;2.47;;;0.25;;
65706;SDS011;52423;43.512;5.220;2023-04-15T14:01:26;0.80;;;0.30;;
65706;SDS011;52423;43.512;5.220;2023-04-15T14:03:51;0.25;;;0.10;;
65706;SDS011;52423;43.512;5.220;2023-04-15T14:06:17;1.08;;;0.47;;
65706;SDS011;52423;43.512;5.220;2023-04-15T14:08:42;2.08;;;1.10;;
65706;SDS011;52423;43.512;5.220;2023-04-15T14:11:07;0.63;;;0.25;;
65706;SDS011;52423;43.512;5.220;2023-04-15T14:13:33;1.98;;;0.40;;
65706;SDS011;52423;43.512;5.220;2023-04-15T14:15:59;2.13;;;0.30;;
65706;SDS011;52423;43.512;5.220;2023-04-15T14:18:24;0.30;;;0.30;;
65706;SDS011;52423;43.512;5.220;2023-04-15T14:20:50;4.22;;;0.55;;
65706;SDS011;52423;43.512;5.220;2023-04-15T14:23:15;0.30;;;0.20;;
65706;SDS011;52423;43.512;5.220;2023-04-15T14:25:41;0.38;;;0.30;;
65706;SDS011;52423;43.512;5.220;2023-04-15T14:28:06;0.38;;;0.28;;
65706;SDS011;52423;43.512;5.220;2023-04-15T14:30:32;1.75;;;0.43;;
65706;SDS011;52423;43.512;5.220;2023-04-15T14:32:57;0.30;;;0.30;;
65706;SDS011;52423;43.512;5.220;2023-04-15T14:35:22;0.32;;;0.32;;
65706;SDS011;52423;43.512;5.220;2023-04-15T14:37:50;0.80;;;0.40;;
65706;SDS011;52423;43.512;5.220;2023-04-15T14:40:17;0.70;;;0.40;;
65706;SDS011;52423;43.512;5.220;2023-04-15T14:42:43;1.48;;;0.50;;
65706;SDS011;52423;43.512;5.220;2023-04-15T14:45:08;0.50;;;0.40;;
65706;SDS011;52423;43.512;5.220;2023-04-15T14:47:34;1.02;;;0.70;;
65706;SDS011;52423;43.512;5.220;2023-04-15T14:50:00;1.30;;;0.45;;
65706;SDS011;52423;43.512;5.220;2023-04-15T14:52:25;4.13;;;0.35;;
65706;SDS011;52423;43.512;5.220;2023-04-15T14:54:50;2.75;;;0.20;;
65706;SDS011;52423;43.512;5.220;2023-04-15T14:57:16;0.38;;;0.38;;
65706;SDS011;52423;43.512;5.220;2023-04-15T14:59:41;1.60;;;0.30;;
65706;SDS011;52423;43.512;5.220;2023-04-15T15:02:06;1.27;;;0.40;;
65706;SDS011;52423;43.512;5.220;2023-04-15T15:04:32;3.42;;;0.25;;
65706;SDS011;52423;43.512;5.220;2023-04-15T15:06:58;0.40;;;0.40;;
65706;SDS011;52423;43.512;5.220;2023-04-15T15:09:24;3.83;;;0.40;;
65706;SDS011;52423;43.512;5.220;2023-04-15T15:11:49;9.63;;;0.60;;
65706;SDS011;52423;43.512;5.220;2023-04-15T15:14:15;1.77;;;0.20;;
65706;SDS011;52423;43.512;5.220;2023-04-15T15:16:41;3.72;;;0.30;;